createdAt,value
2023-07-19T00:02:17.904Z,1.40
2023-07-19T00:04:48.809Z,1.23
2023-07-19T00:07:15.836Z,1.10
2023-07-19T00:09:42.690Z,0.88
2023-07-19T00:12:11.982Z,1.20
2023-07-19T00:14:38.734Z,1.30
2023-07-19T00:17:07.511Z,1.17
2023-07-19T00:19:34.350Z,1.17
2023-07-19T00:22:06.059Z,1.10
2023-07-19T00:24:33.312Z,1.02
2023-07-19T00:27:00.287Z,1.00
2023-07-19T00:29:27.074Z,1.35
2023-07-19T00:31:54.099Z,1.20
2023-07-19T00:34:20.888Z,1.20
2023-07-19T00:36:47.791Z,1.40
2023-07-19T00:39:14.540Z,1.20
2023-07-19T00:41:41.305Z,1.10
2023-07-19T00:44:08.024Z,1.10
2023-07-19T00:46:34.983Z,1.13
2023-07-19T00:49:02.257Z,1.10
2023-07-19T00:51:31.553Z,1.02
2023-07-19T00:54:03.382Z,1.20
2023-07-19T00:56:31.114Z,1.10
2023-07-19T00:58:59.152Z,1.20
2023-07-19T01:01:27.553Z,1.00
2023-07-19T01:03:56.794Z,1.10
2023-07-19T01:06:23.628Z,1.10
2023-07-19T01:08:51.000Z,1.80
2023-07-19T01:11:17.848Z,0.90
2023-07-19T01:13:55.108Z,1.23
2023-07-19T01:16:22.588Z,1.23
2023-07-19T01:18:50.547Z,1.30
2023-07-19T01:21:23.908Z,1.42
2023-07-19T01:23:52.235Z,1.42
2023-07-19T01:26:21.415Z,1.30
2023-07-19T01:28:48.199Z,1.17
2023-07-19T01:31:20.098Z,1.17
2023-07-19T01:33:49.383Z,1.30
2023-07-19T01:36:18.445Z,1.20
2023-07-19T01:38:45.226Z,1.15
2023-07-19T01:41:12.018Z,1.40
2023-07-19T01:43:41.278Z,1.10
2023-07-19T01:46:08.019Z,1.00
2023-07-19T01:48:39.362Z,1.27
2023-07-19T01:51:08.322Z,1.33
2023-07-19T01:53:35.842Z,1.10
2023-07-19T01:56:04.787Z,1.27
2023-07-19T01:58:34.039Z,1.15
2023-07-19T02:01:01.001Z,1.25
2023-07-19T02:03:30.158Z,1.23
2023-07-19T02:06:00.077Z,1.20
2023-07-19T02:08:27.312Z,1.40
2023-07-19T02:10:55.514Z,1.20
2023-07-19T02:13:22.754Z,1.10
2023-07-19T02:15:49.529Z,1.63
2023-07-19T02:18:16.536Z,1.60
2023-07-19T02:20:48.661Z,1.23
2023-07-19T02:23:19.630Z,1.10
2023-07-19T02:25:50.698Z,1.20
2023-07-19T02:28:23.355Z,1.40
2023-07-19T02:30:54.904Z,1.27
2023-07-19T02:33:21.713Z,1.20
2023-07-19T02:35:55.343Z,1.52
2023-07-19T02:38:23.060Z,1.42
2023-07-19T02:40:50.050Z,1.48
2023-07-19T02:43:17.024Z,1.50
2023-07-19T02:45:43.847Z,1.42
2023-07-19T02:48:10.571Z,1.25
2023-07-19T02:50:37.406Z,1.38
2023-07-19T02:53:04.159Z,1.30
2023-07-19T02:55:31.619Z,2.17
2023-07-19T02:57:58.560Z,1.70
2023-07-19T03:00:27.874Z,1.67
2023-07-19T03:02:55.762Z,1.58
2023-07-19T03:05:23.694Z,1.45
2023-07-19T03:07:51.069Z,1.50
2023-07-19T03:10:20.346Z,1.58
2023-07-19T03:12:47.165Z,1.60
2023-07-19T03:15:14.069Z,1.50
2023-07-19T03:17:40.885Z,1.30
2023-07-19T03:20:08.471Z,1.30
2023-07-19T03:22:35.372Z,1.45
2023-07-19T03:25:02.217Z,1.30
2023-07-19T03:27:28.973Z,1.65
2023-07-19T03:29:57.743Z,1.77
2023-07-19T03:32:24.544Z,1.50
2023-07-19T03:34:54.086Z,1.40
2023-07-19T03:37:20.776Z,1.40
2023-07-19T03:39:47.546Z,1.70
2023-07-19T03:42:14.377Z,1.38
2023-07-19T03:44:41.106Z,1.33
2023-07-19T03:47:08.181Z,1.45
2023-07-19T03:49:37.413Z,1.50
2023-07-19T03:52:04.305Z,1.23
2023-07-19T03:54:33.430Z,1.30
2023-07-19T03:57:00.362Z,1.27
2023-07-19T03:59:27.239Z,1.50
2023-07-19T04:01:54.136Z,1.40
2023-07-19T04:04:23.240Z,1.23
2023-07-19T04:06:52.299Z,1.20
2023-07-19T04:09:21.316Z,1.52
2023-07-19T04:11:48.258Z,1.40
2023-07-19T04:14:15.048Z,1.50
2023-07-19T04:16:42.920Z,1.40
2023-07-19T04:19:09.730Z,1.35
2023-07-19T04:21:36.477Z,1.23
2023-07-19T04:24:05.720Z,1.30
2023-07-19T04:26:34.835Z,1.38
2023-07-19T04:29:06.296Z,1.60
2023-07-19T04:31:35.327Z,1.40
2023-07-19T04:34:02.030Z,1.40
2023-07-19T04:36:33.529Z,1.40
2023-07-19T04:39:00.217Z,1.42
2023-07-19T04:41:29.253Z,1.40
2023-07-19T04:43:56.094Z,1.20
2023-07-19T04:46:28.199Z,1.50
2023-07-19T04:48:57.341Z,1.63
2023-07-19T04:51:24.098Z,1.70
2023-07-19T04:53:50.999Z,1.63
2023-07-19T04:56:20.044Z,1.60
2023-07-19T04:58:49.306Z,1.92
2023-07-19T05:01:16.169Z,1.60
2023-07-19T05:03:43.088Z,1.80
2023-07-19T05:06:09.920Z,1.55
2023-07-19T05:08:39.173Z,1.75
2023-07-19T05:11:08.478Z,1.70
2023-07-19T05:13:37.351Z,1.42
2023-07-19T05:16:04.907Z,1.90
2023-07-19T05:18:32.186Z,1.75
2023-07-19T05:21:01.593Z,1.55
2023-07-19T05:23:28.405Z,1.77
2023-07-19T05:25:55.267Z,2.00
2023-07-19T05:28:24.374Z,1.67
2023-07-19T05:30:51.309Z,1.80
2023-07-19T05:33:18.357Z,1.80
2023-07-19T05:35:48.622Z,1.77
2023-07-19T05:38:15.329Z,2.03
2023-07-19T05:40:42.155Z,2.28
2023-07-19T05:43:09.119Z,1.90
2023-07-19T05:45:37.106Z,2.22
2023-07-19T05:48:04.250Z,2.13
2023-07-19T05:50:31.465Z,2.05
2023-07-19T05:52:58.348Z,2.10
2023-07-19T05:55:27.365Z,1.92
2023-07-19T05:57:58.777Z,1.98
2023-07-19T06:00:29.774Z,1.83
2023-07-19T06:02:57.051Z,1.70
2023-07-19T06:05:27.303Z,2.67
2023-07-19T06:07:54.693Z,2.10
2023-07-19T06:10:21.688Z,2.05
2023-07-19T06:12:48.727Z,2.50
2023-07-19T06:15:18.276Z,2.30
2023-07-19T06:17:45.159Z,2.70
2023-07-19T06:20:12.415Z,2.72
2023-07-19T06:22:39.383Z,2.38
2023-07-19T06:25:07.110Z,2.58
2023-07-19T06:27:36.325Z,2.75
2023-07-19T06:30:06.218Z,2.60
2023-07-19T06:32:32.913Z,3.10
2023-07-19T06:35:01.915Z,2.97
2023-07-19T06:37:33.900Z,3.08
2023-07-19T06:40:04.042Z,3.10
2023-07-19T06:42:33.840Z,2.70
2023-07-19T06:45:03.763Z,2.58
2023-07-19T06:47:31.330Z,2.97
2023-07-19T06:50:01.530Z,3.25
2023-07-19T06:52:29.276Z,3.03
2023-07-19T06:54:58.937Z,2.92
2023-07-19T06:57:25.649Z,2.92
2023-07-19T06:59:53.562Z,2.63
2023-07-19T07:02:22.652Z,3.25
2023-07-19T07:04:50.913Z,2.60
2023-07-19T07:07:19.706Z,2.65
2023-07-19T07:09:51.860Z,2.30
2023-07-19T07:12:18.614Z,2.10
2023-07-19T07:14:50.489Z,2.33
2023-07-19T07:17:19.995Z,2.53
2023-07-19T07:19:46.798Z,2.50
2023-07-19T07:22:13.521Z,2.50
2023-07-19T07:24:40.900Z,2.70
2023-07-19T07:27:07.828Z,2.55
2023-07-19T07:29:38.022Z,2.40
2023-07-19T07:32:04.944Z,2.50
2023-07-19T07:34:31.610Z,2.42
2023-07-19T07:36:58.396Z,2.60
2023-07-19T07:39:25.034Z,2.42
2023-07-19T07:41:51.757Z,2.10
2023-07-19T07:44:18.589Z,2.33
2023-07-19T07:46:48.217Z,2.72
2023-07-19T07:49:17.486Z,2.85
2023-07-19T07:51:44.769Z,2.45
2023-07-19T07:54:11.482Z,2.33
2023-07-19T07:56:38.473Z,2.88
2023-07-19T07:59:07.481Z,2.70
2023-07-19T08:01:34.317Z,2.00
2023-07-19T08:04:01.842Z,1.90
2023-07-19T08:06:28.663Z,2.20
2023-07-19T08:08:57.889Z,1.83
2023-07-19T08:11:26.258Z,2.08
2023-07-19T08:13:55.305Z,1.85
2023-07-19T08:16:22.227Z,1.77
2023-07-19T08:18:49.336Z,2.40
2023-07-19T08:21:29.933Z,1.63
2023-07-19T08:24:02.578Z,2.03
2023-07-19T08:26:29.314Z,1.67
2023-07-19T08:28:58.637Z,1.63
2023-07-19T08:31:25.411Z,2.15
2023-07-19T08:33:54.594Z,2.00
2023-07-19T08:36:23.997Z,1.73
2023-07-19T08:38:50.955Z,1.83
2023-07-19T08:41:25.838Z,1.67
2023-07-19T08:43:56.704Z,1.90
2023-07-19T08:46:23.979Z,1.60
2023-07-19T08:48:51.376Z,1.80
2023-07-19T08:51:19.610Z,1.67
2023-07-19T08:53:46.735Z,1.67
2023-07-19T08:56:14.593Z,1.80
2023-07-19T08:58:41.448Z,1.88
2023-07-19T09:01:08.752Z,1.90
2023-07-19T09:03:38.061Z,1.83
2023-07-19T09:06:04.915Z,1.38
2023-07-19T09:08:37.291Z,1.83
2023-07-19T09:11:09.423Z,1.60
2023-07-19T09:13:39.780Z,1.83
2023-07-19T09:16:08.057Z,1.95
2023-07-19T09:18:40.001Z,1.88
2023-07-19T09:21:07.152Z,1.75
2023-07-19T09:23:38.019Z,2.22
2023-07-19T09:26:07.567Z,1.98
2023-07-19T09:28:36.099Z,2.28
2023-07-19T09:33:33.687Z,1.60
2023-07-19T09:36:00.338Z,1.38
2023-07-19T09:38:27.376Z,1.50
2023-07-19T09:40:55.280Z,1.58
2023-07-19T09:43:22.844Z,1.60
2023-07-19T09:45:51.204Z,2.03
2023-07-19T09:48:19.564Z,1.58
2023-07-19T09:50:54.760Z,1.70
2023-07-19T09:53:24.179Z,1.48
2023-07-19T09:55:54.076Z,1.85
2023-07-19T09:58:23.145Z,1.88
2023-07-19T10:00:50.478Z,1.60
2023-07-19T10:03:23.123Z,1.90
2023-07-19T10:06:00.145Z,1.70
2023-07-19T10:08:28.279Z,1.85
2023-07-19T10:10:58.991Z,1.50
2023-07-19T10:13:33.161Z,1.83
2023-07-19T10:16:02.332Z,1.55
2023-07-19T10:18:34.333Z,1.45
2023-07-19T10:21:07.209Z,1.83
2023-07-19T10:23:36.324Z,2.22
2023-07-19T10:26:11.104Z,1.67
2023-07-19T10:28:39.618Z,1.80
2023-07-19T10:31:27.384Z,1.83
2023-07-19T10:33:56.635Z,2.05
2023-07-19T10:36:26.522Z,2.08
2023-07-19T10:38:53.455Z,1.80
2023-07-19T10:41:31.299Z,1.88
2023-07-19T10:44:02.652Z,1.95
2023-07-19T10:46:31.091Z,1.67
2023-07-19T10:48:59.770Z,1.60
2023-07-19T10:51:26.638Z,1.52
2023-07-19T10:54:00.425Z,1.55
2023-07-19T10:56:31.464Z,1.60
2023-07-19T10:59:02.254Z,1.70
2023-07-19T11:01:31.913Z,1.70
2023-07-19T11:04:04.096Z,1.83
2023-07-19T11:06:31.366Z,1.50
2023-07-19T11:09:05.692Z,1.77
2023-07-19T11:11:36.899Z,1.60
2023-07-19T11:14:03.849Z,1.60
2023-07-19T11:16:32.873Z,1.63
2023-07-19T11:18:59.541Z,1.50
2023-07-19T11:21:29.828Z,1.38
2023-07-19T11:23:59.385Z,1.35
2023-07-19T11:26:26.121Z,1.27
2023-07-19T11:29:00.127Z,1.40
2023-07-19T11:31:34.047Z,1.25
2023-07-19T11:34:05.517Z,1.30
2023-07-19T11:36:33.278Z,1.45
2023-07-19T11:39:00.416Z,1.20
2023-07-19T11:41:30.335Z,1.35
2023-07-19T11:43:59.569Z,1.38
2023-07-19T11:46:28.745Z,1.50
2023-07-19T11:48:57.918Z,1.50
2023-07-19T11:51:24.805Z,1.10
2023-07-19T11:53:51.823Z,1.10
2023-07-19T11:56:21.171Z,1.20
2023-07-19T11:58:50.499Z,0.82
2023-07-19T12:01:21.878Z,1.20
2023-07-19T12:03:49.252Z,1.20
2023-07-19T12:06:15.996Z,1.17
2023-07-19T12:08:42.749Z,1.00
2023-07-19T12:11:09.608Z,1.08
2023-07-19T12:13:36.841Z,1.05
2023-07-19T12:16:07.373Z,1.40
2023-07-19T12:18:34.137Z,0.90
2023-07-19T12:21:01.425Z,0.90
2023-07-19T12:25:58.755Z,0.98
2023-07-19T12:28:27.885Z,1.35
2023-07-19T12:30:59.296Z,0.90
2023-07-19T12:33:28.546Z,0.90
2023-07-19T12:35:55.255Z,1.30
2023-07-19T12:38:21.982Z,1.58
2023-07-19T12:40:48.763Z,1.40
2023-07-19T12:43:17.718Z,1.60
2023-07-19T12:45:44.973Z,1.30
2023-07-19T12:48:14.175Z,2.40
2023-07-19T12:50:43.725Z,1.73
2023-07-19T12:53:10.477Z,1.80
2023-07-19T12:55:37.242Z,1.95
2023-07-19T12:58:06.097Z,1.55
2023-07-19T13:00:36.149Z,2.10
2023-07-19T13:03:05.209Z,1.80
2023-07-19T13:05:33.473Z,1.55
2023-07-19T13:08:03.304Z,1.70
2023-07-19T13:10:30.264Z,1.50
2023-07-19T13:12:56.957Z,1.88
2023-07-19T13:15:23.637Z,1.83
2023-07-19T13:17:50.485Z,1.60
2023-07-19T13:20:17.176Z,1.85
2023-07-19T13:22:43.877Z,1.90
2023-07-19T13:25:10.512Z,1.50
2023-07-19T13:27:37.497Z,1.85
2023-07-19T13:30:07.712Z,1.70
2023-07-19T13:32:35.531Z,1.60
2023-07-19T13:35:02.501Z,1.58
2023-07-19T13:38:06.612Z,1.88
2023-07-19T13:40:18.061Z,1.27
2023-07-19T13:42:44.804Z,1.30
2023-07-19T13:45:11.907Z,1.50
2023-07-19T13:47:42.827Z,1.35
2023-07-19T13:50:12.254Z,1.50
2023-07-19T13:52:41.305Z,1.30
2023-07-19T13:55:08.646Z,1.80
2023-07-19T13:57:35.439Z,1.45
2023-07-19T14:00:02.206Z,1.98
2023-07-19T14:02:34.264Z,1.70
2023-07-19T14:05:01.212Z,1.50
2023-07-19T14:07:28.084Z,1.77
2023-07-19T14:09:54.737Z,1.65
2023-07-19T14:12:35.584Z,2.05
2023-07-19T14:15:05.125Z,1.75
2023-07-19T14:17:32.293Z,1.38
2023-07-19T14:19:59.369Z,1.60
2023-07-19T14:22:28.955Z,1.70
2023-07-19T14:24:58.092Z,1.70
2023-07-19T14:27:24.749Z,1.80
2023-07-19T14:29:53.816Z,1.92
2023-07-19T14:32:22.049Z,1.73
2023-07-19T14:34:49.122Z,1.77
2023-07-19T14:37:17.209Z,1.80
2023-07-19T14:39:44.328Z,1.63
2023-07-19T14:42:11.154Z,1.65
2023-07-19T14:44:37.950Z,1.60
2023-07-19T14:47:04.841Z,1.52
2023-07-19T14:49:32.742Z,1.65
2023-07-19T14:51:59.442Z,1.55
2023-07-19T14:54:26.570Z,1.52
2023-07-19T14:57:05.473Z,1.77
2023-07-19T14:59:32.769Z,1.85
2023-07-19T15:01:59.789Z,1.70
2023-07-19T15:04:26.727Z,1.60
2023-07-19T15:06:53.930Z,1.48
2023-07-19T15:09:20.846Z,1.25
2023-07-19T15:11:50.427Z,1.38
2023-07-19T15:14:17.973Z,1.40
2023-07-19T15:16:44.711Z,1.48
2023-07-19T15:19:11.867Z,1.50
2023-07-19T15:21:41.617Z,1.30
2023-07-19T15:24:10.346Z,1.35
2023-07-19T15:26:40.567Z,1.80
2023-07-19T15:29:09.793Z,1.33
2023-07-19T15:31:36.592Z,1.80
2023-07-19T15:34:03.605Z,1.40
2023-07-19T15:36:32.842Z,1.40
2023-07-19T15:38:59.578Z,1.60
2023-07-19T15:41:28.451Z,1.67
2023-07-19T15:43:57.447Z,1.45
2023-07-19T15:46:36.305Z,1.90
2023-07-19T15:49:03.960Z,1.70
2023-07-19T15:51:31.573Z,1.40
2023-07-19T15:53:58.355Z,1.48
2023-07-19T15:56:25.048Z,1.58
2023-07-19T15:58:53.889Z,1.40
2023-07-19T16:01:20.960Z,1.70
2023-07-19T16:03:50.343Z,1.30
2023-07-19T16:06:18.288Z,1.40
2023-07-19T16:08:47.547Z,1.30
2023-07-19T16:11:17.216Z,1.50
2023-07-19T16:13:48.744Z,1.65
2023-07-19T16:16:15.423Z,1.85
2023-07-19T16:18:42.083Z,1.67
2023-07-19T16:21:08.927Z,1.50
2023-07-19T16:23:35.727Z,1.58
2023-07-19T16:26:04.658Z,1.77
2023-07-19T16:28:33.838Z,1.50
2023-07-19T16:31:00.861Z,2.13
2023-07-19T16:33:27.629Z,1.90
2023-07-19T16:35:59.181Z,2.00
2023-07-19T16:38:28.422Z,1.70
2023-07-19T16:40:57.459Z,1.55
2023-07-19T16:43:25.976Z,1.67
2023-07-19T16:45:53.336Z,1.50
2023-07-19T16:48:22.033Z,1.90
2023-07-19T16:50:51.285Z,1.80
2023-07-19T16:53:19.434Z,1.80
2023-07-19T16:55:49.489Z,1.80
2023-07-19T16:58:16.940Z,2.20
2023-07-19T17:00:44.737Z,1.92
2023-07-19T17:03:11.722Z,2.20
2023-07-19T17:05:39.237Z,2.08
2023-07-19T17:08:08.635Z,2.13
2023-07-19T17:10:36.094Z,2.20
2023-07-19T17:13:05.240Z,1.77
2023-07-19T17:15:38.268Z,1.50
2023-07-19T17:18:06.785Z,1.60
2023-07-19T17:20:34.855Z,1.48
2023-07-19T17:23:01.731Z,1.33
2023-07-19T17:25:28.914Z,1.50
2023-07-19T17:27:55.575Z,1.35
2023-07-19T17:30:23.574Z,1.30
2023-07-19T17:32:50.291Z,1.38
2023-07-19T17:35:17.528Z,1.33
2023-07-19T17:37:47.121Z,1.35
2023-07-19T17:40:14.282Z,1.50
2023-07-19T17:42:43.993Z,1.20
2023-07-19T17:45:11.452Z,1.25
2023-07-19T17:47:38.162Z,1.40
2023-07-19T17:50:09.853Z,1.10
2023-07-19T17:52:37.739Z,1.27
2023-07-19T17:55:05.044Z,1.10
2023-07-19T17:57:31.835Z,0.93
2023-07-19T17:59:58.581Z,1.20
2023-07-19T18:02:27.804Z,1.20
2023-07-19T18:04:54.565Z,1.35
2023-07-19T18:07:21.267Z,1.20
2023-07-19T18:09:48.045Z,1.58
2023-07-19T18:12:14.854Z,1.40
2023-07-19T18:14:42.678Z,1.20
2023-07-19T18:17:11.816Z,1.65
2023-07-19T18:19:38.691Z,1.38
2023-07-19T18:22:05.767Z,1.30
2023-07-19T18:24:33.436Z,1.10
2023-07-19T18:27:03.628Z,1.35
2023-07-19T18:29:30.636Z,1.40
2023-07-19T18:32:00.026Z,1.40
2023-07-19T18:34:26.927Z,1.73
2023-07-19T18:36:56.462Z,1.50
2023-07-19T18:39:23.370Z,1.45
2023-07-19T18:41:50.493Z,1.42
2023-07-19T18:44:17.192Z,1.60
2023-07-19T18:46:44.409Z,1.48
2023-07-19T18:49:11.360Z,1.40
2023-07-19T18:51:38.152Z,1.55
2023-07-19T18:54:04.990Z,1.40
2023-07-19T18:56:32.465Z,1.52
2023-07-19T18:58:59.325Z,1.77
2023-07-19T19:01:26.623Z,1.65
2023-07-19T19:03:55.219Z,1.58
2023-07-19T19:06:24.932Z,2.00
2023-07-19T19:08:51.741Z,1.63
2023-07-19T19:11:18.809Z,1.67
2023-07-19T19:13:45.803Z,1.52
2023-07-19T19:16:13.090Z,1.38
2023-07-19T19:18:39.930Z,1.67
2023-07-19T19:21:07.727Z,1.80
2023-07-19T19:23:35.644Z,1.48
2023-07-19T19:26:02.651Z,1.83
2023-07-19T19:28:30.366Z,1.92
2023-07-19T19:30:59.363Z,1.83
2023-07-19T19:33:26.246Z,1.80
2023-07-19T19:35:53.717Z,1.77
2023-07-19T19:38:27.315Z,1.88
2023-07-19T19:40:58.803Z,1.70
2023-07-19T19:43:26.159Z,1.60
2023-07-19T19:45:54.440Z,1.60
2023-07-19T19:48:21.203Z,1.77
2023-07-19T19:50:48.049Z,2.30
2023-07-19T19:53:15.539Z,2.00
2023-07-19T19:58:17.045Z,1.92
2023-07-19T20:00:43.904Z,1.70
2023-07-19T20:08:11.648Z,2.40
2023-07-19T20:10:59.213Z,2.72
2023-07-19T20:13:26.588Z,3.30
2023-07-19T20:16:01.142Z,2.90
2023-07-19T20:18:47.312Z,2.75
2023-07-19T20:21:15.281Z,2.72
2023-07-19T20:23:42.154Z,2.50
2023-07-19T20:26:14.788Z,2.05
2023-07-19T20:28:47.511Z,2.10
2023-07-19T20:34:33.650Z,2.10
2023-07-19T20:41:36.661Z,1.83
2023-07-19T20:44:03.685Z,1.83
2023-07-19T20:46:34.420Z,1.70
2023-07-19T20:49:13.453Z,1.48
2023-07-19T20:51:43.760Z,1.58
2023-07-19T20:54:15.095Z,1.50
2023-07-19T20:56:42.498Z,1.48
2023-07-19T20:59:09.543Z,1.52
2023-07-19T21:01:40.429Z,1.63
2023-07-19T21:04:07.669Z,1.70
2023-07-19T21:06:34.410Z,1.30
2023-07-19T21:09:01.585Z,1.45
2023-07-19T21:11:30.909Z,1.40
2023-07-19T21:13:58.012Z,1.25
2023-07-19T21:16:26.915Z,1.40
2023-07-19T21:18:56.035Z,1.35
2023-07-19T21:21:24.026Z,1.25
2023-07-19T21:23:51.779Z,1.50
2023-07-19T21:26:18.652Z,1.30
2023-07-19T21:28:45.715Z,1.23
2023-07-19T21:31:12.710Z,1.40
2023-07-19T21:33:39.657Z,1.30
2023-07-19T21:36:06.475Z,1.95
2023-07-19T21:38:36.067Z,1.10
2023-07-19T21:41:05.101Z,1.33
2023-07-19T21:43:37.612Z,1.40
2023-07-19T21:46:07.728Z,1.30
2023-07-19T21:48:34.576Z,1.20
2023-07-19T21:51:01.297Z,1.23
2023-07-19T21:53:28.689Z,1.42
2023-07-19T21:55:55.372Z,1.10
2023-07-19T21:58:22.461Z,1.00
2023-07-19T22:00:53.604Z,1.02
2023-07-19T22:03:20.723Z,0.93
2023-07-19T22:05:48.406Z,1.13
2023-07-19T22:08:15.353Z,1.30
2023-07-19T22:10:42.580Z,1.40
2023-07-19T22:13:09.763Z,1.20
2023-07-19T22:15:39.422Z,1.15
2023-07-19T22:18:22.966Z,1.20
2023-07-19T22:20:50.999Z,1.20
2023-07-19T22:23:19.356Z,1.10
2023-07-19T22:25:48.594Z,1.23
2023-07-19T22:28:18.724Z,1.50
2023-07-19T22:30:46.379Z,1.15
2023-07-19T22:33:16.059Z,1.48
2023-07-19T22:35:43.368Z,1.20
2023-07-19T22:38:10.289Z,1.48
2023-07-19T22:40:40.098Z,1.40
2023-07-19T22:43:11.474Z,1.33
2023-07-19T22:45:38.564Z,1.30
2023-07-19T22:48:08.701Z,1.50
2023-07-19T22:50:35.853Z,1.40
2023-07-19T22:53:04.015Z,1.25
2023-07-19T22:55:30.882Z,1.30
2023-07-19T22:57:57.803Z,1.65
2023-07-19T23:00:25.255Z,1.35
2023-07-19T23:02:52.501Z,1.38
2023-07-19T23:05:21.638Z,1.50
2023-07-19T23:07:48.475Z,1.85
2023-07-19T23:10:15.190Z,1.48
2023-07-19T23:12:42.175Z,1.73
2023-07-19T23:15:10.454Z,1.48
2023-07-19T23:17:37.306Z,1.40
2023-07-19T23:20:07.322Z,1.60
2023-07-19T23:22:36.854Z,1.77
2023-07-19T23:25:04.283Z,1.50
2023-07-19T23:27:31.020Z,1.42
2023-07-19T23:29:58.041Z,1.50
2023-07-19T23:32:25.019Z,1.75
2023-07-19T23:34:51.846Z,1.40
2023-07-19T23:37:19.307Z,1.40
2023-07-19T23:39:46.165Z,1.45
2023-07-19T23:42:12.971Z,1.75
2023-07-19T23:44:40.888Z,1.83
2023-07-19T23:47:11.119Z,1.80
2023-07-19T23:49:38.066Z,2.00
2023-07-19T23:52:05.847Z,1.85
2023-07-19T23:54:33.260Z,2.10
2023-07-19T23:57:00.195Z,1.70
2023-07-19T23:59:27.722Z,1.70
